Terminal Aerodrome Forecast
Issued by NWS Wilmington, OH

Current Version | Previous Version | Text Only | Print | Product List | Glossary Off
Versions: 1 2 3 4 5 6 7 8 9 10 11 12 13 14 15 16 17 18 19 20 21 22 23 24 25 26 27 28

000
FTUS41 KILN 212330
TAFCVG
TAF
KCVG 212330Z 2200/2306 01012KT P6SM -RA OVC007
     FM220200 03010KT 4SM SHRA OVC007
     FM221300 05010KT 3SM -SHRA OVC007
     FM221800 05007KT P6SM VCSH OVC006
     FM230000 07005KT P6SM OVC012
     FM230400 09004KT P6SM OVC020=

USA.gov is the U.S. government's official web portal to all federal, state and local government web resources and services.